createdAt,value
2018-12-29T00:00:26.293Z,25.20
2018-12-29T00:02:55.148Z,24.52
2018-12-29T00:05:24.112Z,22.75
2018-12-29T00:07:53.200Z,23.60
2018-12-29T00:10:22.064Z,22.90
2018-12-29T00:12:50.962Z,21.77
2018-12-29T00:15:19.868Z,23.07
2018-12-29T00:17:48.794Z,22.35
2018-12-29T00:20:17.605Z,23.55
2018-12-29T00:22:46.499Z,24.72
2018-12-29T00:25:15.376Z,21.68
2018-12-29T00:27:44.216Z,21.33
2018-12-29T00:30:13.480Z,22.05
2018-12-29T00:32:42.265Z,22.82
2018-12-29T00:35:11.035Z,21.73
2018-12-29T00:37:39.936Z,22.05
2018-12-29T00:40:08.916Z,19.50
2018-12-29T00:42:37.724Z,21.45
2018-12-29T00:45:06.645Z,21.80
2018-12-29T00:47:35.607Z,20.88
2018-12-29T00:50:04.960Z,20.25
2018-12-29T00:52:33.964Z,20.27
2018-12-29T00:55:02.740Z,19.82
2018-12-29T00:57:31.644Z,20.50
2018-12-29T01:00:00.548Z,19.92
2018-12-29T01:02:29.532Z,19.50
2018-12-29T01:04:58.424Z,21.65
2018-12-29T01:07:27.405Z,21.95
2018-12-29T01:09:56.211Z,23.47
2018-12-29T01:12:25.001Z,24.57
2018-12-29T01:14:53.828Z,23.85
2018-12-29T01:17:22.716Z,24.37
2018-12-29T01:19:51.825Z,23.65
2018-12-29T01:22:20.800Z,22.13
2018-12-29T01:24:49.676Z,24.85
2018-12-29T01:27:18.456Z,21.52
2018-12-29T01:29:47.266Z,22.02
2018-12-29T01:32:16.091Z,22.85
2018-12-29T01:34:44.867Z,22.10
2018-12-29T01:37:13.704Z,23.18
2018-12-29T01:39:42.674Z,24.75
2018-12-29T01:42:11.475Z,24.10
2018-12-29T01:44:40.376Z,22.85
2018-12-29T01:47:09.285Z,24.12
2018-12-29T01:49:38.209Z,21.00
2018-12-29T01:52:07.107Z,23.30
2018-12-29T01:54:35.918Z,22.80
2018-12-29T01:57:04.784Z,21.17
2018-12-29T01:59:33.716Z,21.07
2018-12-29T02:02:02.619Z,20.88
2018-12-29T02:04:31.632Z,21.90
2018-12-29T02:07:00.400Z,24.55
2018-12-29T02:09:29.308Z,21.20
2018-12-29T02:11:58.116Z,21.55
2018-12-29T02:14:26.981Z,24.18
2018-12-29T02:16:55.860Z,22.70
2018-12-29T02:19:24.840Z,20.90
2018-12-29T02:21:53.732Z,21.62
2018-12-29T02:24:22.620Z,21.02
2018-12-29T02:26:51.472Z,21.57
2018-12-29T02:29:20.340Z,24.35
2018-12-29T02:31:49.150Z,21.73
2018-12-29T02:34:18.070Z,23.62
2018-12-29T02:36:46.888Z,21.07
2018-12-29T02:39:15.843Z,20.68
2018-12-29T02:41:44.826Z,23.07
2018-12-29T02:44:13.724Z,23.85
2018-12-29T02:46:42.567Z,21.15
2018-12-29T02:49:11.330Z,21.97
2018-12-29T02:51:40.196Z,22.17
2018-12-29T02:54:09.092Z,23.15
2018-12-29T02:56:37.901Z,23.27
2018-12-29T02:59:06.832Z,22.62
2018-12-29T03:01:35.776Z,22.07
2018-12-29T03:04:04.660Z,21.23
2018-12-29T03:06:33.768Z,21.40
2018-12-29T03:09:02.744Z,21.17
2018-12-29T03:11:31.805Z,21.15
2018-12-29T03:14:00.624Z,22.98
2018-12-29T03:16:29.440Z,22.93
2018-12-29T03:18:58.237Z,23.57
2018-12-29T03:21:27.042Z,21.95
2018-12-29T03:23:55.877Z,21.45
2018-12-29T03:26:24.863Z,22.13
2018-12-29T03:28:53.884Z,22.27
2018-12-29T03:31:22.793Z,21.25
2018-12-29T03:33:51.636Z,21.30
2018-12-29T03:36:20.429Z,21.70
2018-12-29T03:38:49.344Z,22.07
2018-12-29T03:41:18.237Z,21.85
2018-12-29T03:43:47.110Z,21.93
2018-12-29T03:46:15.977Z,20.90
2018-12-29T03:48:44.778Z,20.62
2018-12-29T03:51:13.640Z,20.15
2018-12-29T03:53:42.532Z,20.20
2018-12-29T03:56:11.528Z,20.65
2018-12-29T03:58:40.331Z,20.95
2018-12-29T04:01:09.320Z,20.60
2018-12-29T04:03:38.124Z,20.40
2018-12-29T04:06:06.924Z,20.55
2018-12-29T04:08:35.887Z,20.40
2018-12-29T04:11:04.928Z,21.10
2018-12-29T04:13:34.377Z,22.20
2018-12-29T04:16:03.265Z,20.57
2018-12-29T04:18:32.056Z,18.90
2018-12-29T04:21:00.848Z,19.25
2018-12-29T04:23:29.670Z,19.40
2018-12-29T04:25:58.436Z,21.77
2018-12-29T04:28:27.236Z,19.98
2018-12-29T04:30:56.203Z,20.30
2018-12-29T04:33:25.008Z,22.13
2018-12-29T04:35:53.884Z,19.23
2018-12-29T04:38:22.660Z,20.35
2018-12-29T04:40:51.451Z,20.85
2018-12-29T04:43:20.268Z,20.23
2018-12-29T04:45:49.321Z,19.50
2018-12-29T04:48:18.217Z,19.45
2018-12-29T04:50:47.384Z,19.35
2018-12-29T04:53:16.288Z,18.95
2018-12-29T04:55:45.180Z,18.90
2018-12-29T04:58:14.122Z,18.55
2018-12-29T05:00:42.968Z,20.32
2018-12-29T05:03:11.844Z,20.65
2018-12-29T05:05:40.656Z,20.90
2018-12-29T05:08:09.520Z,18.85
2018-12-29T05:10:38.336Z,20.72
2018-12-29T05:13:07.298Z,21.12
2018-12-29T05:15:36.204Z,21.25
2018-12-29T05:18:05.011Z,21.33
2018-12-29T05:20:33.821Z,20.77
2018-12-29T05:23:02.940Z,22.58
2018-12-29T05:25:31.817Z,21.68
2018-12-29T05:28:00.753Z,21.33
2018-12-29T05:30:29.680Z,20.70
2018-12-29T05:32:58.468Z,21.77
2018-12-29T05:35:27.265Z,21.82
2018-12-29T05:37:56.041Z,20.35
2018-12-29T05:40:25.250Z,21.20
2018-12-29T05:42:55.964Z,21.40
2018-12-29T05:45:25.032Z,21.40
2018-12-29T05:47:53.844Z,21.95
2018-12-29T05:50:22.640Z,22.55
2018-12-29T05:52:51.508Z,21.45
2018-12-29T05:55:20.376Z,21.45
2018-12-29T05:57:49.164Z,21.42
2018-12-29T06:00:18.056Z,23.45
2018-12-29T06:02:46.852Z,23.67
2018-12-29T06:05:15.708Z,24.75
2018-12-29T06:07:44.521Z,22.75
2018-12-29T06:10:13.424Z,24.77
2018-12-29T06:12:42.304Z,23.83
2018-12-29T06:15:11.272Z,22.32
2018-12-29T06:17:40.172Z,21.73
2018-12-29T06:20:09.052Z,25.00
2018-12-29T06:22:37.900Z,24.07
2018-12-29T06:25:06.800Z,22.58
2018-12-29T06:27:35.621Z,23.22
2018-12-29T06:30:04.796Z,23.77
2018-12-29T06:32:33.704Z,23.83
2018-12-29T06:35:02.484Z,22.93
2018-12-29T06:37:31.352Z,26.50
2018-12-29T06:40:00.357Z,24.00
2018-12-29T06:42:29.150Z,23.07
2018-12-29T06:44:57.953Z,24.18
2018-12-29T06:47:26.851Z,24.60
2018-12-29T06:49:55.648Z,23.70
2018-12-29T06:52:24.528Z,25.23
2018-12-29T06:54:53.324Z,25.08
2018-12-29T06:57:22.246Z,24.70
2018-12-29T06:59:51.060Z,26.77
2018-12-29T07:02:19.880Z,25.90
2018-12-29T07:04:48.660Z,24.27
2018-12-29T07:07:17.533Z,25.17
2018-12-29T07:09:46.363Z,24.85
2018-12-29T07:12:15.168Z,25.30
2018-12-29T07:14:44.039Z,24.87
2018-12-29T07:17:12.840Z,24.90
2018-12-29T07:19:41.612Z,23.10
2018-12-29T07:22:10.457Z,24.20
2018-12-29T07:24:39.380Z,22.30
2018-12-29T07:27:08.185Z,23.15
2018-12-29T07:29:38.415Z,25.60
2018-12-29T07:32:07.348Z,22.77
2018-12-29T07:34:36.114Z,23.30
2018-12-29T07:37:05.188Z,24.02
2018-12-29T07:39:34.071Z,25.43
2018-12-29T07:42:02.953Z,24.12
2018-12-29T07:44:31.785Z,22.22
2018-12-29T07:47:00.644Z,23.90
2018-12-29T07:49:29.540Z,25.55
2018-12-29T07:51:58.389Z,23.83
2018-12-29T07:54:27.476Z,24.15
2018-12-29T07:56:56.288Z,22.60
2018-12-29T07:59:25.107Z,24.05
2018-12-29T08:01:54.220Z,22.13
2018-12-29T08:04:23.004Z,24.18
2018-12-29T08:06:51.824Z,23.75
2018-12-29T08:09:20.568Z,22.90
2018-12-29T08:11:49.392Z,24.55
2018-12-29T08:14:18.205Z,23.50
2018-12-29T08:16:47.073Z,23.95
2018-12-29T08:19:15.888Z,22.20
2018-12-29T08:21:44.733Z,24.55
2018-12-29T08:24:13.529Z,22.45
2018-12-29T08:26:42.327Z,25.75
2018-12-29T08:29:11.688Z,22.70
2018-12-29T08:31:40.472Z,23.87
2018-12-29T08:34:09.260Z,23.20
2018-12-29T08:36:38.128Z,23.38
2018-12-29T08:39:07.346Z,22.52
2018-12-29T08:41:36.452Z,25.08
2018-12-29T08:44:05.412Z,23.62
2018-12-29T08:46:34.348Z,23.60
2018-12-29T08:49:03.264Z,22.70
2018-12-29T08:51:32.172Z,23.40
2018-12-29T08:54:01.015Z,24.02
2018-12-29T08:56:29.813Z,24.60
2018-12-29T08:58:58.671Z,24.05
2018-12-29T09:01:27.592Z,24.47
2018-12-29T09:03:56.437Z,24.37
2018-12-29T09:06:25.400Z,24.98
2018-12-29T09:08:54.296Z,25.92
2018-12-29T09:11:23.189Z,23.95
2018-12-29T09:13:51.997Z,24.20
2018-12-29T09:16:20.813Z,23.60
2018-12-29T09:18:50.010Z,23.77
2018-12-29T09:21:18.931Z,25.30
2018-12-29T09:23:47.760Z,25.05
2018-12-29T09:26:16.566Z,24.15
2018-12-29T09:28:45.428Z,23.05
2018-12-29T09:31:14.233Z,25.10
2018-12-29T09:33:43.109Z,24.72
2018-12-29T09:36:11.998Z,24.12
2018-12-29T09:38:40.808Z,23.83
2018-12-29T09:41:09.800Z,24.05
2018-12-29T09:43:38.620Z,25.00
2018-12-29T09:46:07.684Z,24.60
2018-12-29T09:48:36.499Z,21.95
2018-12-29T09:51:05.333Z,21.62
2018-12-29T09:53:34.328Z,23.70
2018-12-29T09:56:03.224Z,23.02
2018-12-29T09:58:32.140Z,23.32
2018-12-29T10:01:01.118Z,24.12
2018-12-29T10:03:30.133Z,22.32
2018-12-29T10:05:59.027Z,25.10
2018-12-29T10:08:27.937Z,23.67
2018-12-29T10:10:56.777Z,24.05
2018-12-29T10:13:25.572Z,24.40
2018-12-29T10:15:54.352Z,23.80
2018-12-29T10:18:23.149Z,22.65
2018-12-29T10:20:51.921Z,23.22
2018-12-29T10:23:20.754Z,21.55
2018-12-29T10:25:49.560Z,22.80
2018-12-29T10:28:18.477Z,23.38
2018-12-29T10:30:47.269Z,21.60
2018-12-29T10:33:16.061Z,21.42
2018-12-29T10:35:45.313Z,21.45
2018-12-29T10:38:14.093Z,24.00
2018-12-29T10:40:43.027Z,21.10
2018-12-29T10:43:11.840Z,23.70
2018-12-29T10:45:40.651Z,22.48
2018-12-29T10:48:09.552Z,22.00
2018-12-29T10:50:38.356Z,24.37
2018-12-29T10:53:07.236Z,23.62
2018-12-29T10:55:36.044Z,23.32
2018-12-29T10:58:04.872Z,22.80
2018-12-29T11:00:35.179Z,24.35
2018-12-29T11:03:04.456Z,23.18
2018-12-29T11:05:33.233Z,23.30
2018-12-29T11:08:02.032Z,24.20
2018-12-29T11:10:30.845Z,22.00
2018-12-29T11:12:59.836Z,22.55
2018-12-29T11:15:28.740Z,21.52
2018-12-29T11:17:57.644Z,20.95
2018-12-29T11:20:26.575Z,22.65
2018-12-29T11:22:55.405Z,23.32
2018-12-29T11:25:24.542Z,22.45
2018-12-29T11:27:53.292Z,22.58
2018-12-29T11:30:22.196Z,24.82
2018-12-29T11:32:51.041Z,22.27
2018-12-29T11:35:19.934Z,23.80
2018-12-29T11:37:48.716Z,21.37
2018-12-29T11:40:17.589Z,22.50
2018-12-29T11:42:46.376Z,25.30
2018-12-29T11:45:15.208Z,24.45
2018-12-29T11:47:49.824Z,22.93
2018-12-29T11:50:14.636Z,23.75
2018-12-29T11:52:43.780Z,22.98
2018-12-29T11:55:12.556Z,24.10
2018-12-29T11:57:41.342Z,22.25
2018-12-29T12:00:10.352Z,24.20
2018-12-29T12:02:39.144Z,24.92
2018-12-29T12:05:08.136Z,23.38
2018-12-29T12:07:37.052Z,22.25
2018-12-29T12:10:06.008Z,23.62
2018-12-29T12:12:35.280Z,20.65
2018-12-29T12:15:04.245Z,24.37
2018-12-29T12:17:33.049Z,22.30
2018-12-29T12:20:01.908Z,25.68
2018-12-29T12:22:30.824Z,22.80
2018-12-29T12:24:59.965Z,22.62
2018-12-29T12:27:28.768Z,22.82
2018-12-29T12:29:58.004Z,23.35
2018-12-29T12:32:26.804Z,23.73
2018-12-29T12:34:55.869Z,22.40
2018-12-29T12:37:24.632Z,22.20
2018-12-29T12:39:53.708Z,24.77
2018-12-29T12:42:22.540Z,22.82
2018-12-29T12:44:51.341Z,23.27
2018-12-29T12:47:20.108Z,23.95
2018-12-29T12:49:49.072Z,22.17
2018-12-29T12:52:17.928Z,22.42
2018-12-29T12:54:46.928Z,24.05
2018-12-29T12:57:16.041Z,21.93
2018-12-29T12:59:45.212Z,25.00
2018-12-29T13:02:14.114Z,21.93
2018-12-29T13:04:43.196Z,23.30
2018-12-29T13:07:11.976Z,22.50
2018-12-29T13:09:41.040Z,23.05
2018-12-29T13:12:10.005Z,23.25
2018-12-29T13:14:38.787Z,24.65
2018-12-29T13:17:07.967Z,23.98
2018-12-29T13:19:36.943Z,23.15
2018-12-29T13:22:06.068Z,23.27
2018-12-29T13:24:35.072Z,25.32
2018-12-29T13:27:03.875Z,23.85
2018-12-29T13:29:32.659Z,26.73
2018-12-29T13:32:01.556Z,25.23
2018-12-29T13:34:30.528Z,24.80
2018-12-29T13:36:59.436Z,23.95
2018-12-29T13:39:28.239Z,22.73
2018-12-29T13:41:57.049Z,24.60
2018-12-29T13:44:25.856Z,25.43
2018-12-29T13:46:54.965Z,23.62
2018-12-29T13:49:23.784Z,26.50
2018-12-29T13:51:52.697Z,26.37
2018-12-29T13:54:21.524Z,24.45
2018-12-29T13:56:50.452Z,24.10
2018-12-29T13:59:19.394Z,24.30
2018-12-29T14:01:48.280Z,22.70
2018-12-29T14:04:17.333Z,24.55
2018-12-29T14:06:46.239Z,21.62
2018-12-29T14:09:15.145Z,22.07
2018-12-29T14:11:43.950Z,22.60
2018-12-29T14:14:12.864Z,23.47
2018-12-29T14:16:41.908Z,23.77
2018-12-29T14:19:10.728Z,21.57
2018-12-29T14:21:39.617Z,20.88
2018-12-29T14:24:08.581Z,21.33
2018-12-29T14:26:37.417Z,21.17
2018-12-29T14:29:06.293Z,19.82
2018-12-29T14:31:35.200Z,20.75
2018-12-29T14:34:04.328Z,21.52
2018-12-29T14:36:33.246Z,20.52
2018-12-29T14:39:02.168Z,20.60
2018-12-29T14:41:31.160Z,20.70
2018-12-29T14:44:00.085Z,21.25
2018-12-29T14:46:29.010Z,20.70
2018-12-29T14:48:57.872Z,24.07
2018-12-29T14:51:26.656Z,16.67
2018-12-29T14:53:55.621Z,16.25
2018-12-29T14:56:24.546Z,20.70
2018-12-29T14:58:53.436Z,17.23
2018-12-29T15:01:22.279Z,20.75
2018-12-29T15:03:51.467Z,18.30
2018-12-29T15:06:20.274Z,16.23
2018-12-29T15:08:49.065Z,18.17
2018-12-29T15:11:19.624Z,17.42
2018-12-29T15:13:48.744Z,15.32
2018-12-29T15:16:17.740Z,15.18
2018-12-29T15:18:46.644Z,21.82
2018-12-29T15:21:15.563Z,19.95
2018-12-29T15:23:44.484Z,18.73
2018-12-29T15:26:13.549Z,14.18
2018-12-29T15:28:42.428Z,14.80
2018-12-29T15:31:11.376Z,14.10
2018-12-29T15:33:40.663Z,16.05
2018-12-29T15:36:16.045Z,14.83
2018-12-29T15:38:40.199Z,16.23
2018-12-29T15:41:09.112Z,16.10
2018-12-29T15:43:38.008Z,15.75
2018-12-29T15:46:06.784Z,16.12
2018-12-29T15:48:35.688Z,16.87
2018-12-29T15:51:04.580Z,17.07
2018-12-29T15:53:33.659Z,15.83
2018-12-29T15:56:02.660Z,18.70
2018-12-29T15:58:31.513Z,19.50
2018-12-29T16:01:00.428Z,19.87
2018-12-29T16:03:29.519Z,16.67
2018-12-29T16:05:58.715Z,15.75
2018-12-29T16:08:27.876Z,15.55
2018-12-29T16:10:56.760Z,14.33
2018-12-29T16:13:25.772Z,15.23
2018-12-29T16:15:55.057Z,18.80
2018-12-29T16:18:24.217Z,22.27
2018-12-29T16:20:55.239Z,17.80
2018-12-29T16:23:26.174Z,21.57
2018-12-29T16:25:57.935Z,18.55
2018-12-29T16:28:30.037Z,21.27
2018-12-29T16:30:59.105Z,17.48
2018-12-29T16:33:28.162Z,15.93
2018-12-29T16:35:57.260Z,17.42
2018-12-29T16:38:26.097Z,14.93
2018-12-29T16:40:57.981Z,13.22
2018-12-29T16:43:26.122Z,14.60
2018-12-29T16:45:54.989Z,15.98
2018-12-29T16:48:23.891Z,14.68
2018-12-29T16:50:53.196Z,14.68
2018-12-29T16:53:28.956Z,13.93
2018-12-29T16:55:52.688Z,19.50
2018-12-29T16:58:21.680Z,17.52
2018-12-29T17:00:51.120Z,14.07
2018-12-29T17:03:19.980Z,13.75
2018-12-29T17:05:48.932Z,14.07
2018-12-29T17:08:17.756Z,12.23
2018-12-29T17:10:47.032Z,14.05
2018-12-29T17:13:15.872Z,14.95
2018-12-29T17:15:44.665Z,12.82
2018-12-29T17:18:13.810Z,13.22
2018-12-29T17:20:43.439Z,13.30
2018-12-29T17:23:12.554Z,14.35
2018-12-29T17:25:41.784Z,19.80
2018-12-29T17:28:10.669Z,19.00
2018-12-29T17:30:39.641Z,13.45
2018-12-29T17:33:09.144Z,13.18
2018-12-29T17:35:38.008Z,20.25
2018-12-29T17:38:06.916Z,14.45
2018-12-29T17:40:35.716Z,14.33
2018-12-29T17:43:04.544Z,16.00
2018-12-29T17:45:33.489Z,11.70
2018-12-29T17:48:02.440Z,12.73
2018-12-29T17:50:31.529Z,47.67
2018-12-29T17:53:00.465Z,19.37
2018-12-29T17:55:29.424Z,12.78
2018-12-29T17:57:59.820Z,12.47
2018-12-29T18:00:30.252Z,13.50
2018-12-29T18:02:59.293Z,14.55
2018-12-29T18:05:28.580Z,13.68
2018-12-29T18:07:57.443Z,13.65
2018-12-29T18:10:26.746Z,13.80
2018-12-29T18:12:55.810Z,14.65
2018-12-29T18:15:24.796Z,16.45
2018-12-29T18:17:53.837Z,15.03
2018-12-29T18:20:22.728Z,17.32
2018-12-29T18:22:51.649Z,17.23
2018-12-29T18:25:20.869Z,17.23
2018-12-29T18:27:50.112Z,17.60
2018-12-29T18:30:19.305Z,16.80
2018-12-29T18:32:48.229Z,16.35
2018-12-29T18:35:19.488Z,17.98
2018-12-29T18:37:48.498Z,18.57
2018-12-29T18:40:17.567Z,18.73
2018-12-29T18:42:46.654Z,19.15
2018-12-29T18:45:15.648Z,18.50
2018-12-29T18:47:44.576Z,20.20
2018-12-29T18:50:13.492Z,19.32
2018-12-29T18:52:42.460Z,20.82
2018-12-29T18:55:11.540Z,19.20
2018-12-29T18:57:40.456Z,22.13
2018-12-29T19:00:09.449Z,20.77
2018-12-29T19:02:38.381Z,20.43
2018-12-29T19:05:07.637Z,19.95
2018-12-29T19:07:36.516Z,19.92
2018-12-29T19:10:05.872Z,18.35
2018-12-29T19:12:34.880Z,21.80
2018-12-29T19:15:04.039Z,22.42
2018-12-29T19:17:33.112Z,22.30
2018-12-29T19:20:02.308Z,21.50
2018-12-29T19:22:31.213Z,22.13
2018-12-29T19:25:00.441Z,24.40
2018-12-29T19:27:29.619Z,22.07
2018-12-29T19:29:58.793Z,24.60
2018-12-29T19:32:28.982Z,25.37
2018-12-29T19:34:58.633Z,24.35
2018-12-29T19:37:27.560Z,22.90
2018-12-29T19:39:56.920Z,25.57
2018-12-29T19:42:26.088Z,26.55
2018-12-29T19:44:54.887Z,22.87
2018-12-29T19:47:24.016Z,32.73
2018-12-29T19:49:54.424Z,14.25
2018-12-29T19:52:23.326Z,10.65
2018-12-29T19:54:52.191Z,9.53
2018-12-29T19:57:21.591Z,10.08
2018-12-29T19:59:50.600Z,10.85
2018-12-29T20:02:19.857Z,9.95
2018-12-29T20:04:49.104Z,10.32
2018-12-29T20:07:18.652Z,9.08
2018-12-29T20:09:47.476Z,10.50
2018-12-29T20:12:16.385Z,10.45
2018-12-29T20:14:45.268Z,10.13
2018-12-29T20:17:14.104Z,10.55
2018-12-29T20:19:43.098Z,10.08
2018-12-29T20:22:12.288Z,10.33
2018-12-29T20:24:41.226Z,9.70
2018-12-29T20:27:10.096Z,9.33
2018-12-29T20:29:38.872Z,8.30
2018-12-29T20:32:08.144Z,10.55
2018-12-29T20:34:36.994Z,11.15
2018-12-29T20:37:05.956Z,9.98
2018-12-29T20:39:34.916Z,10.10
2018-12-29T20:42:03.834Z,9.85
2018-12-29T20:44:32.721Z,11.18
2018-12-29T20:47:01.825Z,10.38
2018-12-29T20:49:30.817Z,10.00
2018-12-29T20:51:59.709Z,10.90
2018-12-29T20:54:28.643Z,10.20
2018-12-29T20:56:57.677Z,10.90
2018-12-29T20:59:26.581Z,10.25
2018-12-29T21:01:55.476Z,10.32
2018-12-29T21:04:24.388Z,11.35
2018-12-29T21:06:53.245Z,9.58
2018-12-29T21:09:22.140Z,9.75
2018-12-29T21:11:50.972Z,9.45
2018-12-29T21:14:19.962Z,10.28
2018-12-29T21:16:48.893Z,9.43
2018-12-29T21:19:17.748Z,10.30
2018-12-29T21:21:46.572Z,9.40
2018-12-29T21:24:15.556Z,10.30
2018-12-29T21:26:45.037Z,10.30
2018-12-29T21:29:13.930Z,10.82
2018-12-29T21:31:42.719Z,10.00
2018-12-29T21:34:11.495Z,11.68
2018-12-29T21:36:40.392Z,9.60
2018-12-29T21:39:09.276Z,9.58
2018-12-29T21:41:38.241Z,9.90
2018-12-29T21:44:07.124Z,9.95
2018-12-29T21:46:36.056Z,10.10
2018-12-29T21:49:04.960Z,9.78
2018-12-29T21:51:33.744Z,9.03
2018-12-29T21:54:02.831Z,10.30
2018-12-29T21:56:31.653Z,10.35
2018-12-29T21:59:00.578Z,10.00
2018-12-29T22:01:29.564Z,11.15
2018-12-29T22:03:58.460Z,11.60
2018-12-29T22:06:27.284Z,10.53
2018-12-29T22:08:56.072Z,11.65
2018-12-29T22:11:24.877Z,10.45
2018-12-29T22:13:53.740Z,10.58
2018-12-29T22:16:22.527Z,10.93
2018-12-29T22:18:51.468Z,10.63
2018-12-29T22:21:20.451Z,12.30
2018-12-29T22:23:49.252Z,12.13
2018-12-29T22:26:18.096Z,12.13
2018-12-29T22:28:46.992Z,11.75
2018-12-29T22:31:16.040Z,11.85
2018-12-29T22:33:44.940Z,11.33
2018-12-29T22:36:13.827Z,12.53
2018-12-29T22:38:42.780Z,10.18
2018-12-29T22:41:11.650Z,11.68
2018-12-29T22:43:40.469Z,10.78
2018-12-29T22:46:12.483Z,12.58
2018-12-29T22:48:41.292Z,12.98
2018-12-29T22:51:10.124Z,12.03
2018-12-29T22:53:39.025Z,12.20
2018-12-29T22:56:07.904Z,11.90
2018-12-29T22:58:36.796Z,13.55
2018-12-29T23:01:06.072Z,13.00
2018-12-29T23:03:35.276Z,11.90
2018-12-29T23:06:05.358Z,12.98
2018-12-29T23:08:34.399Z,11.03
2018-12-29T23:11:03.744Z,11.85
2018-12-29T23:13:32.537Z,12.78
2018-12-29T23:16:01.425Z,12.90
2018-12-29T23:18:30.397Z,11.75
2018-12-29T23:20:59.168Z,12.45
2018-12-29T23:23:28.080Z,12.43
2018-12-29T23:25:57.184Z,13.78
2018-12-29T23:28:26.012Z,13.45
2018-12-29T23:30:55.237Z,14.10
2018-12-29T23:33:24.064Z,12.90
2018-12-29T23:35:53.060Z,15.03
2018-12-29T23:38:21.964Z,13.38
2018-12-29T23:40:50.952Z,13.28
2018-12-29T23:43:19.782Z,12.43
2018-12-29T23:45:48.920Z,12.60
2018-12-29T23:48:17.791Z,13.72
2018-12-29T23:50:46.812Z,12.53
2018-12-29T23:53:15.732Z,12.47
2018-12-29T23:55:44.892Z,12.78
2018-12-29T23:58:13.748Z,13.53
